Time;durP1;ratioP1;P1;durP2;ratioP2;P2;SDS_P1;SDS_P2;PMS_P1;PMS_P2;Temp;Humidity;BMP_temperature;BMP_pressure;BME280_temperature;BME280_humidity;BME280_pressure;Samples;Min_cycle;Max_cycle;Signal;HPM_P1;HPM_P2
2022/08/08 00:00:17;;;;;;;3.83;1.15;;;;;;;17.99;100.00;101849.84;5040081;28;20565;-82
2022/08/08 00:03:19;;;;;;;2.10;0.90;;;;;;;18.52;100.00;101893.06;5052167;28;20475;-82
2022/08/08 00:06:04;;;;;;;2.85;1.27;;;;;;;18.63;100.00;101889.84;5052100;28;20106;-82
2022/08/08 00:08:35;;;;;;;2.85;1.10;;;;;;;18.52;100.00;101881.56;5052211;28;20088;-82
2022/08/08 00:11:12;;;;;;;8.27;1.55;;;;;;;18.46;100.00;101881.91;5046072;28;20055;-82
2022/08/08 00:13:52;;;;;;;3.28;1.08;;;;;;;18.34;100.00;101872.81;5050004;28;20438;-82
2022/08/08 00:16:48;;;;;;;3.30;1.20;;;;;;;18.37;100.00;101873.50;5049611;28;20053;-82
2022/08/08 00:19:20;;;;;;;1.63;0.90;;;;;;;18.26;100.00;101880.31;5046681;28;20056;-82
2022/08/08 00:21:56;;;;;;;1.60;0.90;;;;;;;18.22;100.00;101866.38;5051935;28;20048;-81
2022/08/08 00:24:44;;;;;;;3.00;1.10;;;;;;;18.24;100.00;101871.56;5052129;28;20107;-82
2022/08/08 00:27:14;;;;;;;2.97;1.00;;;;;;;18.10;100.00;101856.41;5039092;28;20056;-82
2022/08/08 00:29:51;;;;;;;1.83;0.90;;;;;;;18.19;100.00;101867.38;5051014;28;20059;-82
2022/08/08 00:32:41;;;;;;;1.90;0.93;;;;;;;18.23;100.00;101862.75;5051099;28;20678;-81
2022/08/08 00:35:31;;;;;;;3.22;1.05;;;;;;;18.15;100.00;101863.16;5055259;28;20049;-81
2022/08/08 00:38:09;;;;;;;3.22;1.10;;;;;;;18.16;100.00;101859.56;5051001;28;20041;-82
2022/08/08 00:41:18;;;;;;;2.95;1.02;;;;;;;18.02;100.00;101855.00;5051039;28;20060;-82
2022/08/08 00:44:18;;;;;;;3.47;1.30;;;;;;;17.97;100.00;101859.69;5048809;28;20045;-82
2022/08/08 00:46:58;;;;;;;3.00;1.00;;;;;;;18.07;100.00;101862.69;5052878;28;20161;-82
2022/08/08 00:49:59;;;;;;;2.20;1.00;;;;;;;18.00;100.00;101845.41;5048443;28;20467;-82
2022/08/08 00:52:47;;;;;;;2.40;0.90;;;;;;;18.10;100.00;101859.91;5050251;28;20063;-82
2022/08/08 00:55:23;;;;;;;2.72;1.15;;;;;;;18.40;100.00;101865.41;5050150;28;20053;-82
2022/08/08 00:58:47;;;;;;;3.72;1.20;;;;;;;18.27;100.00;101858.16;5050319;28;20059;-82
2022/08/08 01:01:43;;;;;;;4.72;1.10;;;;;;;17.83;100.00;101856.84;5050424;28;20076;-82
2022/08/08 01:04:36;;;;;;;3.17;1.02;;;;;;;17.74;100.00;101862.56;5050407;28;20433;-82
2022/08/08 01:07:26;;;;;;;;;;;;;;;17.75;100.00;101854.56;5039985;28;20471;-82
2022/08/08 01:10:50;;;;;;;2.22;0.85;;;;;;;17.83;100.00;101848.88;5039297;28;19928;-82
2022/08/08 01:14:02;;;;;;;2.13;1.08;;;;;;;17.61;100.00;101851.75;5048888;28;20099;-82
2022/08/08 01:17:18;;;;;;;4.78;1.33;;;;;;;17.62;100.00;101858.75;5047171;28;20053;-82
2022/08/08 01:20:15;;;;;;;2.33;1.10;;;;;;;17.14;100.00;101868.13;5060623;28;20048;-82
2022/08/08 01:22:47;;;;;;;4.95;1.33;;;;;;;17.00;100.00;101869.66;5038687;28;20056;-82
2022/08/08 01:25:30;;;;;;;4.03;1.20;;;;;;;17.01;100.00;101862.56;5049757;28;20056;-82
2022/08/08 01:28:33;;;;;;;4.25;1.10;;;;;;;17.12;100.00;101868.19;5050022;28;20048;-82
2022/08/08 01:31:36;;;;;;;4.43;1.08;;;;;;;17.40;100.00;101859.78;5051649;28;20052;-82
2022/08/08 01:34:52;;;;;;;3.58;0.98;;;;;;;17.16;100.00;101856.56;5039448;28;20060;-82
2022/08/08 01:37:25;;;;;;;2.05;0.90;;;;;;;17.48;100.00;101869.19;5050453;28;20055;-82
2022/08/08 01:40:25;;;;;;;2.17;1.10;;;;;;;17.54;100.00;101866.22;5043436;28;20053;-82
2022/08/08 01:43:00;;;;;;;2.50;1.10;;;;;;;17.46;100.00;101867.44;5049810;28;20293;-82
2022/08/08 01:45:56;;;;;;;2.75;1.20;;;;;;;17.41;100.00;101853.56;5048268;28;20061;-82
2022/08/08 01:48:53;;;;;;;3.90;1.00;;;;;;;17.27;100.00;101853.38;5035699;28;20053;-82
2022/08/08 01:51:42;;;;;;;3.15;1.10;;;;;;;17.56;100.00;101867.00;5043240;28;20049;-82
2022/08/08 01:54:39;;;;;;;3.83;1.30;;;;;;;17.31;100.00;101884.06;5042718;28;20061;-82
2022/08/08 01:57:54;;;;;;;3.75;1.17;;;;;;;16.98;100.00;101865.34;5044075;28;20049;-82
2022/08/08 02:00:53;;;;;;;5.43;1.30;;;;;;;17.18;100.00;101880.28;5035719;28;20132;-82
2022/08/08 02:03:48;;;;;;;4.18;1.30;;;;;;;16.98;100.00;101882.09;5049354;28;20045;-82
2022/08/08 02:07:09;;;;;;;5.72;1.30;;;;;;;16.99;100.00;101869.72;5047469;28;20399;-82
2022/08/08 02:09:57;;;;;;;4.55;1.40;;;;;;;17.31;100.00;101889.34;5041689;28;20133;-81
2022/08/08 02:12:56;;;;;;;3.25;1.20;;;;;;;17.38;100.00;101889.94;5050485;28;20049;-82
2022/08/08 02:15:46;;;;;;;4.65;1.30;;;;;;;17.43;100.00;101877.34;5048994;28;20075;-82
2022/08/08 02:18:30;;;;;;;4.75;1.30;;;;;;;17.40;100.00;101886.25;5035804;28;20053;-82
2022/08/08 02:23:56;;;;;;;3.80;1.30;;;;;;;17.43;100.00;101879.97;5041924;28;20124;-82
2022/08/08 02:26:51;;;;;;;3.50;1.30;;;;;;;17.40;100.00;101878.31;5048056;28;20087;-82
2022/08/08 02:29:35;;;;;;;3.47;1.33;;;;;;;17.08;100.00;101882.50;5061970;28;20045;-82
2022/08/08 02:32:47;;;;;;;3.70;1.20;;;;;;;16.76;100.00;101873.38;5040249;28;20055;-81
2022/08/08 02:35:33;;;;;;;3.95;1.50;;;;;;;16.86;100.00;101878.22;5054355;28;20068;-81
2022/08/08 02:38:31;;;;;;;3.70;1.30;;;;;;;16.78;100.00;101877.66;5054255;28;20045;-82
2022/08/08 02:41:26;;;;;;;4.25;1.60;;;;;;;16.40;100.00;101887.31;5051500;28;20056;-82
2022/08/08 02:44:43;;;;;;;5.72;1.50;;;;;;;16.19;100.00;101883.81;5052034;28;20487;-81
2022/08/08 02:47:43;;;;;;;4.50;1.42;;;;;;;16.70;100.00;101878.03;5052933;28;20060;-82
2022/08/08 02:50:46;;;;;;;4.27;1.60;;;;;;;16.94;100.00;101888.44;5050892;28;20491;-81
2022/08/08 02:53:33;;;;;;;3.25;1.30;;;;;;;17.05;100.00;101877.34;4999605;28;20658;-82
2022/08/08 02:56:36;;;;;;;5.03;1.40;;;;;;;16.84;100.00;101877.44;5051529;28;20059;-82
2022/08/08 02:59:54;;;;;;;3.40;1.33;;;;;;;17.16;100.00;101883.00;5050771;28;20518;-81
2022/08/08 03:03:03;;;;;;;3.45;1.10;;;;;;;17.29;100.00;101893.88;5066876;28;20059;-81
2022/08/08 03:06:04;;;;;;;3.67;1.30;;;;;;;17.03;100.00;101879.22;5052312;28;20071;-81
2022/08/08 03:08:41;;;;;;;4.13;1.30;;;;;;;17.11;100.00;101890.31;5053144;28;20151;-81
2022/08/08 03:11:51;;;;;;;2.25;1.10;;;;;;;17.18;100.00;101890.88;5049253;28;20048;-82
2022/08/08 03:14:34;;;;;;;1.70;1.00;;;;;;;17.00;100.00;101893.47;5051631;28;20052;-81
2022/08/08 03:17:36;;;;;;;3.17;0.98;;;;;;;16.92;100.00;101858.53;5052907;28;20056;-82
2022/08/08 03:20:05;;;;;;;1.92;1.00;;;;;;;17.17;100.00;101889.16;5037196;28;20088;-82
2022/08/08 03:22:44;;;;;;;4.88;1.20;;;;;;;16.81;100.00;101885.47;5039486;28;20132;-82
2022/08/08 03:25:15;;;;;;;5.05;1.40;;;;;;;16.57;100.00;101894.50;5043925;28;20099;-82
2022/08/08 03:27:59;;;;;;;5.78;1.40;;;;;;;16.32;100.00;101880.59;5049582;28;20076;-82
2022/08/08 03:30:26;;;;;;;3.10;1.27;;;;;;;16.53;100.00;101896.41;5066690;28;20045;-82
2022/08/08 03:35:59;;;;;;;4.13;1.20;;;;;;;16.81;100.00;101887.25;5049453;28;20053;-82
2022/08/08 03:38:27;;;;;;;3.03;1.17;;;;;;;16.12;100.00;101889.34;5052877;28;21803;-81
2022/08/08 03:41:13;;;;;;;3.03;1.30;;;;;;;15.83;100.00;101882.69;5052545;28;20053;-82
2022/08/08 03:44:00;;;;;;;3.00;1.10;;;;;;;16.44;100.00;101888.91;5051634;28;20041;-81
2022/08/08 03:46:28;;;;;;;2.30;1.15;;;;;;;16.55;100.00;101884.00;5053763;28;20127;-82
2022/08/08 03:49:03;;;;;;;4.78;1.38;;;;;;;16.44;100.00;101881.81;5053951;28;20095;-82
2022/08/08 03:51:54;;;;;;;4.00;1.20;;;;;;;16.35;100.00;101891.94;5039377;28;20052;-82
2022/08/08 03:54:22;;;;;;;4.00;1.30;;;;;;;16.16;100.00;101897.16;5047201;28;20042;-81
2022/08/08 03:57:10;;;;;;;3.97;1.27;;;;;;;16.27;100.00;101908.13;5040579;28;20052;-82
2022/08/08 03:59:57;;;;;;;4.93;1.20;;;;;;;16.37;100.00;101906.81;5049119;28;20056;-82
2022/08/08 04:02:38;;;;;;;4.55;1.40;;;;;;;16.29;100.00;101922.16;5051600;28;20049;-81
2022/08/08 04:05:17;;;;;;;4.53;1.30;;;;;;;16.29;100.00;101903.66;5050132;28;20052;-82
2022/08/08 04:07:45;;;;;;;4.45;1.33;;;;;;;16.00;100.00;101920.72;5032060;28;20046;-82
2022/08/08 04:10:12;;;;;;;4.38;1.50;;;;;;;16.02;100.00;101906.50;5047487;28;20048;-82
2022/08/08 04:12:40;;;;;;;6.13;1.77;;;;;;;16.05;100.00;101922.25;5052000;28;20049;-81
2022/08/08 04:15:07;;;;;;;5.70;1.40;;;;;;;16.05;100.00;101893.19;5051032;28;20049;-82
2022/08/08 04:17:36;;;;;;;3.20;1.15;;;;;;;16.15;100.00;101920.09;5039190;28;20084;-81
2022/08/08 04:20:23;;;;;;;3.10;1.10;;;;;;;16.25;100.00;101926.69;5051476;28;20055;-82
2022/08/08 04:22:55;;;;;;;6.68;1.42;;;;;;;15.69;100.00;101891.13;5038584;28;20464;-82
2022/08/08 04:25:23;;;;;;;5.22;1.42;;;;;;;15.80;100.00;101914.47;5036224;28;20061;-82
2022/08/08 04:27:58;;;;;;;8.25;1.88;;;;;;;15.65;100.00;101923.88;5044479;28;20472;-81
2022/08/08 04:30:46;;;;;;;6.75;1.63;;;;;;;15.38;100.00;101896.75;5044016;28;20048;-82
2022/08/08 04:33:13;;;;;;;5.28;1.60;;;;;;;15.52;100.00;101928.75;5048449;28;20045;-82
2022/08/08 04:35:41;;;;;;;3.88;1.38;;;;;;;15.73;100.00;101942.88;5045853;28;20107;-82
2022/08/08 04:38:17;;;;;;;3.92;1.30;;;;;;;15.90;100.00;101936.06;5049848;28;20052;-82
2022/08/08 04:40:48;;;;;;;5.22;1.40;;;;;;;16.13;100.00;101919.31;5045857;28;20049;-81
2022/08/08 04:43:21;;;;;;;6.60;1.50;;;;;;;16.18;100.00;101924.38;5050864;28;20048;-81
2022/08/08 04:45:58;;;;;;;3.85;1.38;;;;;;;16.17;100.00;101920.88;5044299;28;20045;-82
2022/08/08 04:48:24;;;;;;;6.43;1.30;;;;;;;16.10;100.00;101928.19;5048150;28;20052;-82
2022/08/08 04:50:52;;;;;;;6.63;1.48;;;;;;;15.92;100.00;101921.06;5045922;28;20096;-82
2022/08/08 04:53:18;;;;;;;4.78;1.45;;;;;;;15.50;100.00;101941.16;5049706;28;20053;-82
2022/08/08 04:56:06;;;;;;;4.50;1.48;;;;;;;15.68;100.00;101941.34;5044824;28;20442;-82
2022/08/08 04:58:33;;;;;;;4.43;1.50;;;;;;;15.83;100.00;101937.25;5045866;28;20163;-82
2022/08/08 05:01:00;;;;;;;4.32;1.38;;;;;;;15.87;100.00;101926.50;5050079;28;20140;-82
2022/08/08 05:03:35;;;;;;;3.35;1.33;;;;;;;15.70;100.00;101918.38;5042383;28;20479;-81
2022/08/08 05:06:22;;;;;;;3.20;1.40;;;;;;;15.72;100.00;101929.72;5046676;28;20053;-81
2022/08/08 05:08:53;;;;;;;7.90;1.80;;;;;;;15.93;100.00;101946.53;5050031;28;20048;-82
2022/08/08 05:11:21;;;;;;;4.22;1.52;;;;;;;15.86;100.00;101958.25;5046584;28;20157;-81
2022/08/08 05:13:52;;;;;;;6.05;1.40;;;;;;;15.97;100.00;101919.09;5044290;28;20041;-81
2022/08/08 05:16:27;;;;;;;5.32;1.58;;;;;;;15.98;100.00;101912.84;5042286;28;20049;-81
2022/08/08 05:19:18;;;;;;;4.25;1.48;;;;;;;15.91;100.00;101933.38;5043768;28;20056;-81
2022/08/08 05:22:09;;;;;;;4.95;1.73;;;;;;;15.84;100.00;101934.56;5040471;28;20049;-82
2022/08/08 05:24:37;;;;;;;4.88;1.63;;;;;;;15.80;100.00;101955.88;5039750;28;20499;-81
2022/08/08 05:27:04;;;;;;;5.63;2.08;;;;;;;15.78;100.00;101940.09;5047851;28;20053;-82
2022/08/08 05:29:31;;;;;;;3.55;1.50;;;;;;;15.83;100.00;101940.78;5044841;28;20064;-81
2022/08/08 05:32:04;;;;;;;4.65;1.70;;;;;;;16.05;100.00;101956.59;5045872;28;20077;-82
2022/08/08 05:34:48;;;;;;;7.57;1.70;;;;;;;16.05;100.00;101955.75;5044096;28;20041;-82
2022/08/08 05:37:22;;;;;;;6.37;1.83;;;;;;;15.90;100.00;101944.00;5047593;28;20072;-82
2022/08/08 05:40:06;;;;;;;3.72;1.60;;;;;;;16.04;100.00;101951.38;5064054;28;20286;-82
2022/08/08 05:42:44;;;;;;;5.53;1.52;;;;;;;15.99;100.00;101935.72;5046685;28;20470;-82
2022/08/08 05:45:15;;;;;;;5.28;1.67;;;;;;;16.03;100.00;101939.09;5038629;28;20124;-81
2022/08/08 05:47:59;;;;;;;3.90;1.48;;;;;;;16.19;100.00;101944.59;5043925;28;20045;-82
2022/08/08 05:50:35;;;;;;;4.32;1.70;;;;;;;16.23;100.00;101939.09;5038948;28;20045;-80
2022/08/08 05:53:02;;;;;;;6.68;1.58;;;;;;;16.45;100.00;101956.69;5042655;28;20045;-81
2022/08/08 05:55:50;;;;;;;4.03;1.40;;;;;;;16.51;100.00;101933.50;5033473;28;20045;-82
2022/08/08 05:58:41;;;;;;;5.15;1.55;;;;;;;16.57;100.00;101944.72;5038040;28;20055;-82
2022/08/08 06:01:25;;;;;;;3.22;1.10;;;;;;;16.66;100.00;101957.53;5034436;28;20049;-83
2022/08/08 06:04:12;;;;;;;7.85;1.60;;;;;;;16.73;100.00;101974.00;5032885;28;20053;-82
2022/08/08 06:06:54;;;;;;;3.63;1.35;;;;;;;16.57;100.00;101950.03;5037632;28;20146;-82
2022/08/08 06:09:31;;;;;;;7.85;1.65;;;;;;;16.30;100.00;101922.06;5037536;28;20048;-84
2022/08/08 06:12:19;;;;;;;4.50;1.60;;;;;;;16.81;100.00;101980.69;5044615;28;20049;-83
2022/08/08 06:15:00;;;;;;;3.53;1.65;;;;;;;16.72;100.00;101946.72;5046844;28;20372;-83
2022/08/08 06:17:32;;;;;;;5.43;1.87;;;;;;;16.79;100.00;101981.69;5034685;28;20056;-83
2022/08/08 06:20:18;;;;;;;4.55;1.30;;;;;;;16.87;100.00;101950.47;5049096;28;20065;-84
2022/08/08 06:22:46;;;;;;;5.15;1.42;;;;;;;17.83;100.00;101926.56;5031855;28;20045;-84
2022/08/08 06:25:14;;;;;;;4.00;1.50;;;;;;;19.40;100.00;101930.78;5041953;28;20072;-85
2022/08/08 06:27:54;;;;;;;5.47;1.45;;;;;;;19.93;100.00;101923.41;5042478;28;20041;-86
2022/08/08 06:30:22;;;;;;;4.15;1.30;;;;;;;20.38;100.00;101942.91;5036691;28;20450;-86
2022/08/08 06:32:57;;;;;;;3.80;1.13;;;;;;;20.86;100.00;101964.84;5040177;28;20052;-85
2022/08/08 06:35:30;;;;;;;5.57;1.40;;;;;;;20.36;100.00;101941.28;5033023;28;20045;-85
2022/08/08 06:38:22;;;;;;;6.40;1.50;;;;;;;21.45;100.00;101936.34;5039408;28;20434;-86
2022/08/08 06:41:06;;;;;;;4.50;1.20;;;;;;;21.71;100.00;101964.84;5032178;28;20100;-86
2022/08/08 06:43:42;;;;;;;4.25;1.20;;;;;;;21.87;93.31;101947.81;5042684;28;20835;-86
2022/08/08 06:46:22;;;;;;;3.10;1.05;;;;;;;22.00;94.09;101954.06;5044105;28;20048;-85
2022/08/08 06:48:49;;;;;;;3.67;1.30;;;;;;;21.94;96.88;101960.66;5052214;28;20136;-86
2022/08/08 06:51:19;;;;;;;5.45;1.00;;;;;;;21.87;88.90;101958.50;5045422;28;20045;-85
2022/08/08 06:53:48;;;;;;;4.85;1.48;;;;;;;22.03;90.54;101985.00;5034959;28;20052;-86
2022/08/08 06:56:23;;;;;;;5.00;1.13;;;;;;;21.94;89.29;101978.50;5038663;28;20056;-83
2022/08/08 06:58:51;;;;;;;3.65;1.00;;;;;;;22.80;80.74;101963.81;5036683;28;20429;-85
2022/08/08 07:01:23;;;;;;;6.20;1.30;;;;;;;22.71;80.28;101949.28;5034085;28;20483;-84
2022/08/08 07:04:18;;;;;;;1.65;0.80;;;;;;;23.60;88.08;101990.19;5035821;28;20048;-85
2022/08/08 07:07:09;;;;;;;3.80;1.05;;;;;;;23.92;80.97;101984.31;5046551;28;20392;-85
2022/08/08 07:09:48;;;;;;;2.17;0.80;;;;;;;23.82;73.76;102001.03;5043298;28;20120;-85
2022/08/08 07:12:38;;;;;;;5.15;1.25;;;;;;;23.53;75.23;102004.97;5053430;28;20055;-85
2022/08/08 07:15:07;;;;;;;4.68;1.20;;;;;;;24.56;80.15;101995.50;5039524;28;20081;-85
2022/08/08 07:18:01;;;;;;;6.40;1.38;;;;;;;23.93;78.99;101975.31;5037214;28;20438;-85
2022/08/08 07:20:50;;;;;;;;;;;;;;;23.87;74.81;102006.06;5051654;28;20376;-85
2022/08/08 07:23:17;;;;;;;5.45;1.10;;;;;;;23.41;80.19;102006.69;5053201;28;19920;-85
2022/08/08 07:25:51;;;;;;;5.55;1.27;;;;;;;23.48;77.98;101994.63;5041873;28;20118;-85
2022/08/08 07:28:24;;;;;;;7.97;1.67;;;;;;;23.25;77.06;101989.09;5046607;28;20087;-84
2022/08/08 07:30:58;;;;;;;4.05;1.23;;;;;;;22.96;84.76;101982.28;5050729;28;20437;-83
2022/08/08 07:33:25;;;;;;;4.97;1.35;;;;;;;22.77;84.78;101988.03;5036334;28;20059;-85
2022/08/08 07:35:53;;;;;;;5.15;1.50;;;;;;;22.82;81.70;101999.25;5035881;28;20041;-84
2022/08/08 07:38:22;;;;;;;5.05;1.30;;;;;;;23.92;78.25;101984.31;5048162;28;20052;-85
2022/08/08 07:40:57;;;;;;;4.97;1.10;;;;;;;24.85;74.13;101986.19;5049917;28;20386;-84
2022/08/08 07:43:33;;;;;;;5.07;1.10;;;;;;;24.57;69.30;101975.78;5035690;28;20053;-84
2022/08/08 07:46:03;;;;;;;2.90;1.00;;;;;;;23.67;68.15;101992.31;5040352;28;20094;-84
2022/08/08 07:48:50;;;;;;;7.40;1.13;;;;;;;23.43;72.28;101978.06;5048331;28;20491;-85
2022/08/08 07:51:18;;;;;;;1.95;0.80;;;;;;;24.79;67.52;101985.69;5039991;28;20053;-85
2022/08/08 07:54:19;;;;;;;5.05;0.95;;;;;;;25.35;61.89;102000.06;5042220;28;20046;-84
2022/08/08 07:56:54;;;;;;;4.72;1.17;;;;;;;24.97;60.66;102009.31;5043839;28;20103;-84
2022/08/08 07:59:24;;;;;;;2.75;1.10;;;;;;;24.00;62.28;101972.06;5053980;28;20482;-85
2022/08/08 08:01:58;;;;;;;9.95;3.08;;;;;;;24.76;61.69;101999.31;5052551;28;20059;-84
2022/08/08 08:04:47;;;;;;;5.40;1.63;;;;;;;24.68;60.27;101963.38;5052065;28;20167;-85
2022/08/08 08:07:20;;;;;;;4.03;1.00;;;;;;;24.54;64.50;102000.13;5053975;28;20099;-84
2022/08/08 08:10:01;;;;;;;4.07;0.95;;;;;;;24.51;61.96;101970.03;5041452;28;20056;-85
2022/08/08 08:12:30;;;;;;;7.40;1.73;;;;;;;24.72;61.06;101983.59;5054086;28;20505;-84
2022/08/08 08:15:11;;;;;;;3.70;1.00;;;;;;;24.59;64.45;101939.03;5049432;28;20044;-85
2022/08/08 08:17:44;;;;;;;4.20;1.00;;;;;;;25.31;58.16;102004.00;5052636;28;20052;-85
2022/08/08 08:20:17;;;;;;;4.32;1.15;;;;;;;24.54;60.31;101961.78;5053707;28;20111;-84
2022/08/08 08:22:45;;;;;;;7.50;1.05;;;;;;;24.53;58.19;101985.03;5040981;28;20059;-85
2022/08/08 08:25:13;;;;;;;4.05;0.85;;;;;;;24.54;57.15;101962.66;5048796;28;20132;-82
2022/08/08 08:28:00;;;;;;;3.47;1.00;;;;;;;24.73;57.34;101950.50;5044342;28;20052;-84
2022/08/08 08:30:28;;;;;;;4.10;0.98;;;;;;;24.59;56.91;101936.34;5044072;28;20053;-84
2022/08/08 08:32:55;;;;;;;4.55;0.95;;;;;;;24.97;55.99;101937.84;5043954;28;20055;-84
2022/08/08 08:35:24;;;;;;;4.03;0.90;;;;;;;24.14;59.38;101967.50;5035497;28;20405;-84
2022/08/08 08:38:11;;;;;;;3.83;0.90;;;;;;;24.41;58.12;101983.25;5044122;28;20049;-84
2022/08/08 08:40:43;;;;;;;;;;;;;;;24.58;58.88;101990.88;5039694;28;20061;-84
2022/08/08 08:43:16;;;;;;;4.28;1.10;;;;;;;25.01;58.38;101941.97;5040406;28;20351;-84
2022/08/08 08:45:47;;;;;;;6.63;1.20;;;;;;;24.48;59.00;101979.16;5049112;28;20099;-83
2022/08/08 08:48:17;;;;;;;12.00;1.63;;;;;;;24.47;58.95;101945.34;5046445;28;20140;-84
2022/08/08 08:50:50;;;;;;;3.60;0.90;;;;;;;25.12;58.10;101981.28;5036266;28;20077;-83
2022/08/08 08:53:18;;;;;;;3.85;0.90;;;;;;;24.33;59.27;101945.53;5040759;28;20045;-83
2022/08/08 08:56:06;;;;;;;4.47;1.20;;;;;;;24.13;59.21;101971.97;5031395;28;20076;-83
2022/08/08 08:58:40;;;;;;;3.15;1.00;;;;;;;24.02;59.74;101996.03;5039258;28;20045;-83
2022/08/08 09:01:13;;;;;;;4.88;1.00;;;;;;;24.19;59.54;102002.78;5047871;28;20071;-85
2022/08/08 09:03:44;;;;;;;3.53;0.88;;;;;;;24.00;58.01;101939.13;5047753;28;20041;-83
2022/08/08 09:06:27;;;;;;;3.42;1.00;;;;;;;23.79;58.81;101973.63;5051744;28;20053;-83
2022/08/08 09:09:12;;;;;;;3.15;0.80;;;;;;;23.83;60.29;101996.53;5051001;28;20045;-83
2022/08/08 09:12:01;;;;;;;3.25;1.00;;;;;;;23.90;59.96;101994.25;5050719;28;20048;-84
2022/08/08 09:14:34;;;;;;;2.00;0.80;;;;;;;24.60;58.31;101983.59;5044806;28;20526;-84
2022/08/08 09:17:09;;;;;;;3.88;0.80;;;;;;;23.75;59.51;101996.22;5042661;28;20072;-84
2022/08/08 09:19:44;;;;;;;4.25;1.00;;;;;;;23.90;58.26;101936.28;5032178;28;20049;-84
2022/08/08 09:22:33;;;;;;;3.83;1.05;;;;;;;24.09;60.25;101965.16;5046522;28;20049;-84
2022/08/08 09:25:03;;;;;;;4.35;1.02;;;;;;;23.42;61.48;102014.59;5031745;28;20195;-83
2022/08/08 09:27:30;;;;;;;4.07;0.90;;;;;;;22.69;62.23;101959.22;5050486;28;20495;-84
2022/08/08 09:30:17;;;;;;;4.90;1.08;;;;;;;22.90;64.10;101980.88;5031063;28;20045;-83
2022/08/08 09:32:55;;;;;;;3.30;0.93;;;;;;;23.50;63.09;102003.38;5033136;28;20049;-83
2022/08/08 09:35:47;;;;;;;1.80;0.88;;;;;;;23.49;63.12;101990.97;5033207;28;20524;-83
2022/08/08 09:38:48;;;;;;;2.92;0.85;;;;;;;23.37;64.26;101946.41;5036276;28;20089;-83
2022/08/08 09:41:41;;;;;;;4.30;1.27;;;;;;;24.06;61.63;101981.44;5017925;28;20135;-83
2022/08/08 09:44:30;;;;;;;4.85;0.90;;;;;;;24.23;62.80;102001.59;5038609;28;20052;-84
2022/08/08 09:47:05;;;;;;;6.20;1.55;;;;;;;24.25;61.60;101965.69;5044331;28;20118;-84
2022/08/08 09:49:55;;;;;;;3.83;1.00;;;;;;;23.82;61.69;101928.84;5046657;28;20048;-84
2022/08/08 09:52:30;;;;;;;3.58;1.10;;;;;;;24.62;61.31;101997.69;5037523;28;20046;-84
2022/08/08 09:55:18;;;;;;;5.22;1.33;;;;;;;23.97;60.99;101931.31;5042589;28;20066;-86
2022/08/08 09:58:07;;;;;;;1.80;0.85;;;;;;;24.03;63.82;101990.56;5048623;28;20053;-85
2022/08/08 10:00:38;;;;;;;4.93;1.20;;;;;;;23.48;63.51;101949.19;5031254;28;20407;-85
2022/08/08 10:03:26;;;;;;;2.65;0.90;;;;;;;23.99;63.68;101970.38;5047538;28;20475;-85
2022/08/08 10:05:57;;;;;;;3.78;1.15;;;;;;;23.62;64.34;101946.34;5032308;28;20053;-85
2022/08/08 10:08:25;;;;;;;5.30;1.20;;;;;;;23.98;63.86;101949.94;5046532;28;20388;-85
2022/08/08 10:10:59;;;;;;;4.32;1.10;;;;;;;23.37;64.59;101933.91;5031900;28;20052;-85
2022/08/08 10:13:29;;;;;;;5.07;1.20;;;;;;;23.29;66.85;101914.91;5031516;28;20058;-85
2022/08/08 10:16:01;;;;;;;5.75;1.65;;;;;;;24.08;65.56;101968.78;5047079;28;20045;-85
2022/08/08 10:18:34;;;;;;;6.70;1.40;;;;;;;23.77;64.12;101924.78;5048900;28;20045;-85
2022/08/08 10:21:03;;;;;;;5.97;1.38;;;;;;;24.04;61.77;101986.91;5031540;28;20047;-85
2022/08/08 10:23:51;;;;;;;6.25;1.40;;;;;;;23.81;64.03;101956.53;5045835;28;20049;-85
2022/08/08 10:26:34;;;;;;;4.13;1.00;;;;;;;23.67;63.05;101936.16;5031937;28;20041;-86
2022/08/08 10:29:30;;;;;;;5.03;1.20;;;;;;;23.92;60.69;101978.94;5048318;28;20597;-84
2022/08/08 10:32:37;;;;;;;6.55;1.15;;;;;;;23.59;60.48;101938.53;5053986;28;20583;-85
2022/08/08 10:35:14;;;;;;;3.65;0.98;;;;;;;24.45;59.62;101963.31;5039259;28;20098;-84
2022/08/08 10:38:04;;;;;;;5.18;1.35;;;;;;;24.47;60.80;101963.19;5038046;28;20045;-85
2022/08/08 10:40:37;;;;;;;7.22;1.25;;;;;;;24.28;59.20;101911.09;5052723;28;20051;-84
2022/08/08 10:43:05;;;;;;;2.35;0.90;;;;;;;24.30;58.38;101951.13;5041791;28;20137;-85
2022/08/08 10:45:43;;;;;;;4.25;1.10;;;;;;;24.26;58.05;101905.88;5046078;28;20398;-84
2022/08/08 10:48:36;;;;;;;4.50;1.00;;;;;;;24.05;57.14;101923.56;5051063;28;20049;-84
2022/08/08 10:51:25;;;;;;;4.63;1.10;;;;;;;24.18;55.75;101939.53;5049743;28;20071;-84
2022/08/08 10:53:57;;;;;;;3.85;1.02;;;;;;;24.47;55.28;101936.44;5045453;28;20041;-85
2022/08/08 10:56:34;;;;;;;4.50;1.23;;;;;;;24.24;55.31;101965.81;5037272;28;20542;-84
2022/08/08 10:59:09;;;;;;;6.40;1.45;;;;;;;23.68;56.18;101904.91;5040286;28;20132;-85
2022/08/08 11:01:45;;;;;;;5.40;1.30;;;;;;;23.93;58.68;101908.47;5049411;28;20055;-84
2022/08/08 11:04:21;;;;;;;5.18;1.20;;;;;;;23.75;60.70;101921.38;5053964;28;20502;-85
2022/08/08 11:06:59;;;;;;;4.93;1.20;;;;;;;23.82;62.29;101976.97;5052006;28;20049;-84
2022/08/08 11:09:26;;;;;;;6.35;1.25;;;;;;;23.72;59.44;101911.72;5042709;28;20045;-84
2022/08/08 11:11:58;;;;;;;4.70;1.25;;;;;;;23.76;62.87;101923.06;5039272;28;20103;-85
2022/08/08 11:15:11;;;;;;;4.25;1.08;;;;;;;23.23;64.51;101961.66;5046835;28;20559;-84
2022/08/08 11:17:40;;;;;;;8.40;1.52;;;;;;;23.33;64.79;101937.78;5037946;28;20140;-85
2022/08/08 11:20:27;;;;;;;6.30;1.38;;;;;;;23.41;64.73;101956.78;5053431;28;20049;-85
2022/08/08 11:22:59;;;;;;;3.13;1.02;;;;;;;24.22;63.68;101978.47;5053504;28;20546;-86
2022/08/08 11:25:32;;;;;;;5.70;1.70;;;;;;;23.87;62.75;101982.00;5052068;28;20087;-85
2022/08/08 11:28:24;;;;;;;6.63;1.27;;;;;;;24.35;63.39;101973.88;5053305;28;20402;-86
2022/08/08 11:30:58;;;;;;;8.07;1.58;;;;;;;23.40;64.70;101938.19;5043075;28;20052;-86
2022/08/08 11:33:26;;;;;;;5.25;1.52;;;;;;;24.31;64.14;101958.16;5046967;28;20055;-85
2022/08/08 11:36:13;;;;;;;7.47;1.60;;;;;;;23.41;67.76;101926.50;5037883;28;20046;-86
2022/08/08 11:38:47;;;;;;;4.97;1.40;;;;;;;23.31;66.53;101904.97;5044739;28;20059;-85
2022/08/08 11:41:22;;;;;;;6.43;1.33;;;;;;;24.01;65.77;101978.25;5044767;28;20054;-86
2022/08/08 11:43:52;;;;;;;5.68;1.40;;;;;;;24.13;62.18;101957.75;5048723;28;20725;-85
2022/08/08 11:46:24;;;;;;;6.57;1.48;;;;;;;23.85;64.27;101941.97;5051339;28;20056;-85
2022/08/08 11:48:54;;;;;;;8.43;1.63;;;;;;;23.44;65.28;101947.69;5044638;28;20448;-85
2022/08/08 11:51:24;;;;;;;6.43;1.58;;;;;;;23.93;65.18;101978.84;5033582;28;20055;-85
2022/08/08 11:54:03;;;;;;;6.75;1.80;;;;;;;23.16;67.92;101947.03;5032772;28;20055;-85
2022/08/08 11:56:34;;;;;;;5.00;1.60;;;;;;;23.73;69.17;101979.44;5050360;28;20045;-85
2022/08/08 11:59:10;;;;;;;8.73;1.85;;;;;;;24.03;70.80;101968.31;5039791;28;20048;-85
2022/08/08 12:01:37;;;;;;;5.10;1.58;;;;;;;24.16;67.52;101965.56;5049211;28;20049;-85
2022/08/08 12:04:06;;;;;;;5.97;1.60;;;;;;;24.13;67.98;101944.38;5052242;28;20071;-85
2022/08/08 12:06:33;;;;;;;7.63;1.75;;;;;;;24.21;66.07;101924.09;5046744;28;20045;-86
2022/08/08 12:09:08;;;;;;;7.53;1.98;;;;;;;24.71;65.04;101955.13;5043252;28;20049;-86
2022/08/08 12:11:43;;;;;;;5.00;1.60;;;;;;;24.73;65.45;101954.00;5033798;28;20049;-86
2022/08/08 12:14:20;;;;;;;8.25;2.03;;;;;;;24.47;65.27;101968.56;5036147;28;20064;-86
2022/08/08 12:16:51;;;;;;;6.45;1.40;;;;;;;24.43;64.98;101960.78;5043322;28;20053;-86
2022/08/08 12:19:20;;;;;;;4.82;1.42;;;;;;;24.48;65.85;101965.75;5042632;28;20064;-86
2022/08/08 12:22:07;;;;;;;5.78;1.30;;;;;;;24.49;63.74;101953.22;5047269;28;20073;-86
2022/08/08 12:24:48;;;;;;;5.07;1.20;;;;;;;24.24;63.90;101915.84;5038374;28;20053;-86
2022/08/08 12:27:22;;;;;;;6.68;1.85;;;;;;;24.59;63.66;101919.44;5048161;28;20456;-86
2022/08/08 12:29:57;;;;;;;5.22;1.40;;;;;;;24.20;68.08;101940.25;5045223;28;20045;-86